createdAt,value
2023-04-05T00:00:09.991Z,6.32
2023-04-05T00:01:58.179Z,6.00
2023-04-05T00:03:43.586Z,5.45
2023-04-05T00:05:29.432Z,6.97
2023-04-05T00:07:16.250Z,6.95
2023-04-05T00:09:04.058Z,5.90
2023-04-05T00:10:45.343Z,6.03
2023-04-05T00:12:32.205Z,5.90
2023-04-05T00:14:18.574Z,6.70
2023-04-05T00:15:58.433Z,6.78
2023-04-05T00:17:45.287Z,6.47
2023-04-05T00:19:34.040Z,7.45
2023-04-05T00:21:14.753Z,6.63
2023-04-05T00:23:01.248Z,6.85
2023-04-05T00:24:47.509Z,6.57
2023-04-05T00:26:28.353Z,8.23
2023-04-05T00:28:15.246Z,8.52
2023-04-05T00:30:01.548Z,7.45
2023-04-05T00:31:41.006Z,6.00
2023-04-05T00:33:27.341Z,5.30
2023-04-05T00:35:14.514Z,4.97
2023-04-05T00:36:54.008Z,6.38
2023-04-05T00:38:41.255Z,6.00
2023-04-05T00:40:28.008Z,6.35
2023-04-05T00:42:09.621Z,5.90
2023-04-05T00:43:54.293Z,6.57
2023-04-05T00:45:41.804Z,5.28
2023-04-05T00:47:21.380Z,5.93
2023-04-05T00:49:08.236Z,5.93
2023-04-05T00:50:57.558Z,5.78
2023-04-05T00:52:38.224Z,7.75
2023-04-05T00:54:26.310Z,6.50
2023-04-05T00:56:13.981Z,6.00
2023-04-05T00:57:56.969Z,3.95
2023-04-05T00:59:43.276Z,5.32
2023-04-05T01:01:28.141Z,6.18
2023-04-05T01:03:17.003Z,5.85
2023-04-05T01:05:08.242Z,4.88
2023-04-05T01:07:09.707Z,4.78
2023-04-05T01:09:09.262Z,4.45
2023-04-05T01:11:09.305Z,5.50
2023-04-05T01:12:50.161Z,5.43
2023-04-05T01:14:45.343Z,4.45
2023-04-05T01:16:32.065Z,5.10
2023-04-05T01:18:25.315Z,5.72
2023-04-05T01:20:17.339Z,5.63
2023-04-05T01:22:32.179Z,5.40
2023-04-05T01:24:40.393Z,6.10
2023-04-05T01:27:09.339Z,5.38
2023-04-05T01:29:28.319Z,5.50
2023-04-05T01:31:57.410Z,4.43
2023-04-05T01:34:06.229Z,4.70
2023-04-05T01:36:03.308Z,5.82
2023-04-05T01:37:52.556Z,5.40
2023-04-05T01:39:46.338Z,5.63
2023-04-05T01:41:32.444Z,5.57
2023-04-05T01:43:16.086Z,5.45
2023-04-05T01:45:05.299Z,5.30
2023-04-05T01:47:13.246Z,4.75
2023-04-05T01:49:00.114Z,5.40
2023-04-05T01:50:54.275Z,5.50
2023-04-05T01:52:54.341Z,6.00
2023-04-05T01:54:41.410Z,3.95
2023-04-05T01:56:34.276Z,3.45
2023-04-05T01:58:21.009Z,2.53
2023-04-05T02:00:15.487Z,3.88
2023-04-05T02:02:02.295Z,4.03
2023-04-05T02:03:48.646Z,4.22
2023-04-05T02:05:41.481Z,3.53
2023-04-05T02:07:24.433Z,3.80
2023-04-05T02:09:11.022Z,3.47
2023-04-05T02:11:00.523Z,3.90
2023-04-05T02:12:46.700Z,3.30
2023-04-05T02:14:26.248Z,3.67
2023-04-05T02:16:14.467Z,4.35
2023-04-05T02:18:02.247Z,3.47
2023-04-05T02:19:42.173Z,2.75
2023-04-05T02:21:28.516Z,3.75
2023-04-05T02:23:16.518Z,3.90
2023-04-05T02:24:57.017Z,3.70
2023-04-05T02:26:42.445Z,3.10
2023-04-05T02:28:30.737Z,3.00
2023-04-05T02:30:10.641Z,3.42
2023-04-05T02:32:05.330Z,3.50
2023-04-05T02:34:07.336Z,3.42
2023-04-05T02:35:54.666Z,4.57
2023-04-05T02:37:48.425Z,3.63
2023-04-05T02:39:48.317Z,3.60
2023-04-05T02:41:41.310Z,3.70
2023-04-05T02:43:34.392Z,3.67
2023-04-05T02:45:27.977Z,4.00
2023-04-05T02:47:14.359Z,3.65
2023-04-05T02:49:00.550Z,3.72
2023-04-05T02:50:48.510Z,3.50
2023-04-05T02:52:44.319Z,3.63
2023-04-05T02:54:23.577Z,3.08
2023-04-05T02:56:21.389Z,3.33
2023-04-05T02:58:08.625Z,3.67
2023-04-05T03:00:05.484Z,4.47
2023-04-05T03:01:53.366Z,3.72
2023-04-05T03:03:42.515Z,4.10
2023-04-05T03:05:36.543Z,22.95
2023-04-05T03:07:25.421Z,30.17
2023-04-05T03:09:14.472Z,14.57
2023-04-05T03:11:06.311Z,16.23
2023-04-05T03:12:58.412Z,7.43
2023-04-05T03:14:39.723Z,4.20
2023-04-05T03:16:35.671Z,4.07
2023-04-05T03:18:31.698Z,4.00
2023-04-05T03:20:29.367Z,4.05
2023-04-05T03:22:23.411Z,3.80
2023-04-05T03:24:10.280Z,3.90
2023-04-05T03:26:04.379Z,3.28
2023-04-05T03:28:02.452Z,4.15
2023-04-05T03:29:44.587Z,3.83
2023-04-05T03:31:31.227Z,3.78
2023-04-05T03:33:27.529Z,12.18
2023-04-05T03:35:19.319Z,6.88
2023-04-05T03:37:14.431Z,12.75
2023-04-05T03:39:11.707Z,4.22
2023-04-05T03:40:57.629Z,4.20
2023-04-05T03:42:43.396Z,4.20
2023-04-05T03:44:30.354Z,3.28
2023-04-05T03:46:24.486Z,3.53
2023-04-05T03:48:10.417Z,4.72
2023-04-05T03:49:56.787Z,4.80
2023-04-05T03:51:44.216Z,4.38
2023-04-05T03:53:33.368Z,5.53
2023-04-05T03:55:20.677Z,3.92
2023-04-05T03:57:14.402Z,3.65
2023-04-05T03:59:02.476Z,4.47
2023-04-05T04:00:49.172Z,4.40
2023-04-05T04:02:43.400Z,4.72
2023-04-05T04:04:40.438Z,4.50
2023-04-05T04:06:20.781Z,4.13
2023-04-05T04:08:14.374Z,4.60
2023-04-05T04:10:09.446Z,5.20
2023-04-05T04:11:58.292Z,4.20
2023-04-05T04:13:53.387Z,4.57
2023-04-05T04:15:55.478Z,6.22
2023-04-05T04:17:51.794Z,4.80
2023-04-05T04:20:21.421Z,4.60
2023-04-05T04:22:21.558Z,6.68
2023-04-05T04:24:34.463Z,4.32
2023-04-05T04:26:48.576Z,5.07
2023-04-05T04:29:04.459Z,5.07
2023-04-05T04:31:09.378Z,4.55
2023-04-05T04:33:17.450Z,4.05
2023-04-05T04:35:47.439Z,4.70
2023-04-05T04:37:47.719Z,8.65
2023-04-05T04:40:01.398Z,10.00
2023-04-05T04:41:57.437Z,10.75
2023-04-05T04:44:05.520Z,12.30
2023-04-05T04:46:15.984Z,11.70
2023-04-05T04:48:16.489Z,13.30
2023-04-05T04:50:33.674Z,12.48
2023-04-05T04:52:19.627Z,12.27
2023-04-05T04:54:05.433Z,9.32
2023-04-05T04:55:51.851Z,11.35
2023-04-05T04:57:46.527Z,10.18
2023-04-05T04:59:33.692Z,10.20
2023-04-05T05:01:22.809Z,12.10
2023-04-05T05:03:17.447Z,9.35
2023-04-05T05:05:11.469Z,10.38
2023-04-05T05:06:51.248Z,9.20
2023-04-05T05:08:45.383Z,10.13
2023-04-05T05:10:38.656Z,9.07
2023-04-05T05:12:18.360Z,8.77
2023-04-05T05:14:13.450Z,8.57
2023-04-05T05:16:07.477Z,9.18
2023-04-05T05:17:54.047Z,9.48
2023-04-05T05:19:46.486Z,8.82
2023-04-05T05:21:32.665Z,10.27
2023-04-05T05:23:27.526Z,8.60
2023-04-05T05:25:14.472Z,7.43
2023-04-05T05:27:01.117Z,7.43
2023-04-05T05:28:48.941Z,8.05
2023-04-05T05:30:42.963Z,5.82
2023-04-05T05:32:43.535Z,6.40
2023-04-05T05:34:43.669Z,4.05
2023-04-05T05:36:37.528Z,4.53
2023-04-05T05:38:23.659Z,4.72
2023-04-05T05:40:19.551Z,6.35
2023-04-05T05:42:05.723Z,5.63
2023-04-05T05:43:45.288Z,4.88
2023-04-05T05:45:31.663Z,5.25
2023-04-05T05:47:19.653Z,4.78
2023-04-05T05:48:59.205Z,4.15
2023-04-05T05:50:45.495Z,4.03
2023-04-05T05:52:31.697Z,3.90
2023-04-05T05:54:11.205Z,3.60
2023-04-05T05:55:56.647Z,3.35
2023-04-05T05:57:42.696Z,3.85
2023-04-05T05:59:22.311Z,4.60
2023-04-05T06:01:10.646Z,6.00
2023-04-05T06:02:59.375Z,10.65
2023-04-05T06:04:39.250Z,7.03
2023-04-05T06:06:25.685Z,5.60
2023-04-05T06:08:05.708Z,3.67
2023-04-05T06:09:52.258Z,2.63
2023-04-05T06:11:46.338Z,9.30
2023-04-05T06:13:39.699Z,4.00
2023-04-05T06:15:19.261Z,3.42
2023-04-05T06:17:05.542Z,4.10
2023-04-05T06:18:55.590Z,8.60
2023-04-05T06:20:35.775Z,4.13
2023-04-05T06:22:21.671Z,4.07
2023-04-05T06:24:07.703Z,2.42
2023-04-05T06:25:47.290Z,2.33
2023-04-05T06:27:33.545Z,2.80
2023-04-05T06:29:19.753Z,2.63
2023-04-05T06:31:00.032Z,3.38
2023-04-05T06:32:45.822Z,2.97
2023-04-05T06:34:47.453Z,3.28
2023-04-05T06:36:35.115Z,3.35
2023-04-05T06:38:27.800Z,3.00
2023-04-05T06:40:27.530Z,3.05
2023-04-05T06:42:28.136Z,4.05
2023-04-05T06:44:18.329Z,2.45
2023-04-05T06:46:08.837Z,3.92
2023-04-05T06:47:54.576Z,4.30
2023-04-05T06:49:35.755Z,3.92
2023-04-05T06:51:21.883Z,3.25
2023-04-05T06:53:07.514Z,2.90
2023-04-05T06:54:54.411Z,4.05
2023-04-05T06:56:40.676Z,2.72
2023-04-05T06:58:26.594Z,2.83
2023-04-05T07:00:11.205Z,5.63
2023-04-05T07:02:03.467Z,3.92
2023-04-05T07:03:49.559Z,2.97
2023-04-05T07:05:37.885Z,2.08
2023-04-05T07:07:31.507Z,3.50
2023-04-05T07:09:24.551Z,5.13
2023-04-05T07:11:24.786Z,3.28
2023-04-05T07:13:17.527Z,6.53
2023-04-05T07:15:10.517Z,5.50
2023-04-05T07:16:50.847Z,3.72
2023-04-05T07:18:43.547Z,7.20
2023-04-05T07:20:31.676Z,5.07
2023-04-05T07:22:24.728Z,2.97
2023-04-05T07:24:11.551Z,6.65
2023-04-05T07:25:57.758Z,5.32
2023-04-05T07:27:50.656Z,3.67
2023-04-05T07:29:37.560Z,6.80
2023-04-05T07:31:25.081Z,5.15
2023-04-05T07:33:17.711Z,3.50
2023-04-05T07:34:57.757Z,9.35
2023-04-05T07:36:46.878Z,10.95
2023-04-05T07:38:37.863Z,14.40
2023-04-05T07:40:37.535Z,7.43
2023-04-05T07:42:24.246Z,10.35
2023-04-05T07:44:16.672Z,7.82
2023-04-05T07:46:17.533Z,9.30
2023-04-05T07:48:10.638Z,4.65
2023-04-05T07:49:58.012Z,3.17
2023-04-05T07:51:52.543Z,4.07
2023-04-05T07:53:38.599Z,3.70
2023-04-05T07:55:25.680Z,3.85
2023-04-05T07:57:12.723Z,3.10
2023-04-05T07:59:01.574Z,3.10
2023-04-05T08:00:42.382Z,2.38
2023-04-05T08:02:35.667Z,2.80
2023-04-05T08:04:29.594Z,3.75
2023-04-05T08:06:18.545Z,3.40
2023-04-05T08:08:15.590Z,3.30
2023-04-05T08:10:08.606Z,2.90
2023-04-05T08:11:49.098Z,2.33
2023-04-05T08:13:41.610Z,1.80
2023-04-05T08:15:41.551Z,2.25
2023-04-05T08:17:41.858Z,3.35
2023-04-05T08:19:35.568Z,2.85
2023-04-05T08:21:21.794Z,3.03
2023-04-05T08:23:16.856Z,2.70
2023-04-05T08:25:03.717Z,3.70
2023-04-05T08:26:50.498Z,3.78
2023-04-05T08:28:43.884Z,3.03
2023-04-05T08:30:36.623Z,3.28
2023-04-05T08:32:16.077Z,2.10
2023-04-05T08:34:08.761Z,2.72
2023-04-05T08:36:01.699Z,2.50
2023-04-05T08:37:48.765Z,3.03
2023-04-05T08:39:44.027Z,3.13
2023-04-05T08:41:42.634Z,2.28
2023-04-05T08:43:35.931Z,2.10
2023-04-05T08:45:30.890Z,2.30
2023-04-05T08:47:18.820Z,3.00
2023-04-05T08:49:13.549Z,2.38
2023-04-05T08:51:05.938Z,2.40
2023-04-05T08:52:52.486Z,3.33
2023-04-05T08:54:40.877Z,2.55
2023-04-05T08:56:29.749Z,3.75
2023-04-05T08:58:14.721Z,1.58
2023-04-05T09:00:09.642Z,2.22
2023-04-05T09:02:01.700Z,3.00
2023-04-05T09:03:49.941Z,3.53
2023-04-05T09:05:45.639Z,3.33
2023-04-05T09:07:33.981Z,4.65
2023-04-05T09:09:15.487Z,2.15
2023-04-05T09:11:03.674Z,2.10
2023-04-05T09:12:44.098Z,1.52
2023-04-05T09:14:31.707Z,1.60
2023-04-05T09:16:18.687Z,1.67
2023-04-05T09:18:09.923Z,2.08
2023-04-05T09:20:05.669Z,2.67
2023-04-05T09:22:15.635Z,2.80
2023-04-05T09:23:56.204Z,2.08
2023-04-05T09:25:50.640Z,2.67
2023-04-05T09:27:31.788Z,1.75
2023-04-05T09:29:43.940Z,2.60
2023-04-05T09:31:40.698Z,2.75
2023-04-05T09:33:27.806Z,2.47
2023-04-05T09:35:26.912Z,2.33
2023-04-05T09:37:27.631Z,1.83
2023-04-05T09:39:29.612Z,2.67
2023-04-05T09:41:22.825Z,2.03
2023-04-05T09:43:17.701Z,2.28
2023-04-05T09:45:01.524Z,3.50
2023-04-05T09:47:00.662Z,5.22
2023-04-05T09:48:57.704Z,2.97
2023-04-05T09:50:43.862Z,2.50
2023-04-05T09:52:39.878Z,2.10
2023-04-05T09:54:34.708Z,2.17
2023-04-05T09:56:15.001Z,3.20
2023-04-05T09:58:07.953Z,4.90
2023-04-05T09:59:49.098Z,3.03
2023-04-05T10:01:42.697Z,1.90
2023-04-05T10:03:29.088Z,3.85
2023-04-05T10:05:16.024Z,3.90
2023-04-05T10:06:55.577Z,2.50
2023-04-05T10:08:41.791Z,2.88
2023-04-05T10:10:29.843Z,1.85
2023-04-05T10:12:11.716Z,1.73
2023-04-05T10:13:59.788Z,2.65
2023-04-05T10:15:49.949Z,2.45
2023-04-05T10:17:36.147Z,1.98
2023-04-05T10:19:33.804Z,1.98
2023-04-05T10:21:24.146Z,1.33
2023-04-05T10:23:16.668Z,2.10
2023-04-05T10:25:15.040Z,2.10
2023-04-05T10:27:05.725Z,1.73
2023-04-05T10:29:06.682Z,1.38
2023-04-05T10:30:53.227Z,2.00
2023-04-05T10:32:56.681Z,1.60
2023-04-05T10:34:56.786Z,1.83
2023-04-05T10:36:50.167Z,3.25
2023-04-05T10:38:37.754Z,3.92
2023-04-05T10:40:36.696Z,3.28
2023-04-05T10:42:22.180Z,3.00
2023-04-05T10:44:25.502Z,4.10
2023-04-05T10:46:21.582Z,4.43
2023-04-05T10:48:23.701Z,3.83
2023-04-05T10:50:20.796Z,3.88
2023-04-05T10:52:00.992Z,4.40
2023-04-05T10:53:55.090Z,2.60
2023-04-05T10:55:49.679Z,2.13
2023-04-05T10:57:38.843Z,3.28
2023-04-05T10:59:33.232Z,3.53
2023-04-05T11:01:34.700Z,3.88
2023-04-05T11:03:50.914Z,2.17
2023-04-05T11:05:42.057Z,3.03
2023-04-05T11:07:44.478Z,3.03
2023-04-05T11:09:33.746Z,2.28
2023-04-05T11:11:23.044Z,2.83
2023-04-05T11:13:11.654Z,2.60
2023-04-05T11:14:59.754Z,2.15
2023-04-05T11:16:47.937Z,4.07
2023-04-05T11:18:34.636Z,6.38
2023-04-05T11:20:20.788Z,2.50
2023-04-05T11:22:09.007Z,4.32
2023-04-05T11:24:03.814Z,4.43
2023-04-05T11:25:54.882Z,14.98
2023-04-05T11:27:42.194Z,2.58
2023-04-05T11:29:49.649Z,2.30
2023-04-05T11:31:35.731Z,3.25
2023-04-05T11:34:06.971Z,2.60
2023-04-05T11:36:09.821Z,3.08
2023-04-05T11:38:20.764Z,2.67
2023-04-05T11:40:35.955Z,2.50
2023-04-05T11:42:23.944Z,2.80
2023-04-05T11:44:16.701Z,2.42
2023-04-05T11:46:02.772Z,4.03
2023-04-05T11:47:45.034Z,3.70
2023-04-05T11:49:39.923Z,3.00
2023-04-05T11:51:38.872Z,2.83
2023-04-05T11:53:38.771Z,2.67
2023-04-05T11:55:28.022Z,3.20
2023-04-05T11:57:20.737Z,3.45
2023-04-05T11:59:13.962Z,3.22
2023-04-05T12:01:07.974Z,3.05
2023-04-05T12:02:53.812Z,2.83
2023-04-05T12:04:42.064Z,3.35
2023-04-05T12:06:34.959Z,2.63
2023-04-05T12:08:21.766Z,2.75
2023-04-05T12:10:12.050Z,3.22
2023-04-05T12:12:11.964Z,3.17
2023-04-05T12:14:00.181Z,3.78
2023-04-05T12:15:46.957Z,4.85
2023-04-05T12:17:46.289Z,6.60
2023-04-05T12:19:45.813Z,5.88
2023-04-05T12:21:40.795Z,5.50
2023-04-05T12:23:35.157Z,6.93
2023-04-05T12:25:14.856Z,3.70
2023-04-05T12:27:08.778Z,3.20
2023-04-05T12:28:59.034Z,2.83
2023-04-05T12:30:57.163Z,4.28
2023-04-05T12:32:58.857Z,4.05
2023-04-05T12:34:49.233Z,2.88
2023-04-05T12:36:42.789Z,4.63
2023-04-05T12:38:31.790Z,4.63
2023-04-05T12:40:25.932Z,4.32
2023-04-05T12:42:11.771Z,3.30
2023-04-05T12:44:01.669Z,3.65
2023-04-05T12:45:57.998Z,3.65
2023-04-05T12:47:50.901Z,3.88
2023-04-05T12:49:30.737Z,3.50
2023-04-05T12:51:23.570Z,3.58
2023-04-05T12:53:14.794Z,2.97
2023-04-05T12:55:03.180Z,18.77
2023-04-05T12:56:50.516Z,9.02
2023-04-05T12:58:42.864Z,4.68
2023-04-05T13:00:26.709Z,4.05
2023-04-05T13:02:14.081Z,5.82
2023-04-05T13:04:12.536Z,6.13
2023-04-05T13:06:15.811Z,5.07
2023-04-05T13:08:09.156Z,4.03
2023-04-05T13:10:01.859Z,2.60
2023-04-05T13:11:42.956Z,2.65
2023-04-05T13:13:35.932Z,1.88
2023-04-05T13:15:28.863Z,2.65
2023-04-05T13:17:15.064Z,2.13
2023-04-05T13:19:02.127Z,3.35
2023-04-05T13:20:48.030Z,2.47
2023-04-05T13:22:41.844Z,2.78
2023-04-05T13:24:28.206Z,4.53
2023-04-05T13:26:14.641Z,4.22
2023-04-05T13:28:02.872Z,4.03
2023-04-05T13:29:43.295Z,4.75
2023-04-05T13:31:29.954Z,4.03
2023-04-05T13:33:22.828Z,2.42
2023-04-05T13:35:10.497Z,2.10
2023-04-05T13:36:58.115Z,3.20
2023-04-05T13:38:43.841Z,2.80
2023-04-05T13:40:43.915Z,28.15
2023-04-05T13:42:31.145Z,13.07
2023-04-05T13:44:25.934Z,5.40
2023-04-05T13:46:12.815Z,7.10
2023-04-05T13:48:05.898Z,8.73
2023-04-05T13:49:51.887Z,4.95
2023-04-05T13:51:41.550Z,2.90
2023-04-05T13:53:33.853Z,4.40
2023-04-05T13:55:20.077Z,5.97
2023-04-05T13:57:06.851Z,5.53
2023-04-05T13:58:53.911Z,4.43
2023-04-05T14:00:35.068Z,6.65
2023-04-05T14:02:32.863Z,3.33
2023-04-05T14:04:25.913Z,3.88
2023-04-05T14:06:05.895Z,4.45
2023-04-05T14:07:52.410Z,3.35
2023-04-05T14:09:38.917Z,2.83
2023-04-05T14:11:18.596Z,5.18
2023-04-05T14:13:11.177Z,4.32
2023-04-05T14:15:03.929Z,4.10
2023-04-05T14:16:45.134Z,3.92
2023-04-05T14:18:31.968Z,5.30
2023-04-05T14:20:18.919Z,3.78
2023-04-05T14:21:59.107Z,6.03
2023-04-05T14:23:45.878Z,14.40
2023-04-05T14:25:32.923Z,5.43
2023-04-05T14:27:13.147Z,3.95
2023-04-05T14:29:00.031Z,5.25
2023-04-05T14:30:46.889Z,6.68
2023-04-05T14:32:28.198Z,2.70
2023-04-05T14:34:21.992Z,2.88
2023-04-05T14:36:14.904Z,2.88
2023-04-05T14:37:54.739Z,3.70
2023-04-05T14:39:48.005Z,3.78
2023-04-05T14:41:41.919Z,3.50
2023-04-05T14:43:28.135Z,3.65
2023-04-05T14:45:22.095Z,2.50
2023-04-05T14:47:14.926Z,3.28
2023-04-05T14:49:16.885Z,2.50
2023-04-05T14:51:11.220Z,2.05
2023-04-05T14:52:57.111Z,6.82
2023-04-05T14:54:49.873Z,5.18
2023-04-05T14:56:36.023Z,3.70
2023-04-05T14:58:22.755Z,4.45
2023-04-05T15:00:15.928Z,4.85
2023-04-05T15:01:56.182Z,8.48
2023-04-05T15:03:42.372Z,3.50
2023-04-05T15:05:29.904Z,4.97
2023-04-05T15:07:30.091Z,4.22
2023-04-05T15:09:16.853Z,4.13
2023-04-05T15:11:09.935Z,21.08
2023-04-05T15:13:04.274Z,2.45
2023-04-05T15:14:51.874Z,4.60
2023-04-05T15:16:37.958Z,5.97
2023-04-05T15:18:24.220Z,8.93
2023-04-05T15:20:11.499Z,14.30
2023-04-05T15:21:58.993Z,10.05
2023-04-05T15:23:46.772Z,17.58
2023-04-05T15:25:39.939Z,14.25
2023-04-05T15:27:27.014Z,7.28
2023-04-05T15:29:27.036Z,7.22
2023-04-05T15:31:13.904Z,6.07
2023-04-05T15:33:09.003Z,5.60
2023-04-05T15:35:02.286Z,10.70
2023-04-05T15:36:48.876Z,8.93
2023-04-05T15:38:44.064Z,7.53
2023-04-05T15:40:31.370Z,9.48
2023-04-05T15:42:16.973Z,11.73
2023-04-05T15:44:04.014Z,10.32
2023-04-05T15:45:58.088Z,13.52
2023-04-05T15:47:38.212Z,9.43
2023-04-05T15:49:24.837Z,7.03
2023-04-05T15:51:11.995Z,17.23
2023-04-05T15:52:52.275Z,12.32
2023-04-05T15:54:40.402Z,7.38
2023-04-05T15:56:27.246Z,4.60
2023-04-05T15:58:13.204Z,5.15
2023-04-05T15:59:54.440Z,4.75
2023-04-05T16:01:41.174Z,4.15
2023-04-05T16:03:21.281Z,5.97
2023-04-05T16:05:08.167Z,7.60
2023-04-05T16:06:55.036Z,6.57
2023-04-05T16:08:41.230Z,6.10
2023-04-05T16:10:29.254Z,6.82
2023-04-05T16:12:16.133Z,7.63
2023-04-05T16:13:56.969Z,6.72
2023-04-05T16:15:43.882Z,7.20
2023-04-05T16:17:32.135Z,11.48
2023-04-05T16:19:18.260Z,8.15
2023-04-05T16:21:11.943Z,7.45
2023-04-05T16:23:06.106Z,6.07
2023-04-05T16:24:45.815Z,9.25
2023-04-05T16:26:41.008Z,6.38
2023-04-05T16:28:34.004Z,6.53
2023-04-05T16:30:16.011Z,5.93
2023-04-05T16:32:09.079Z,4.63
2023-04-05T16:34:09.061Z,6.72
2023-04-05T16:35:56.228Z,7.68
2023-04-05T16:37:50.018Z,5.63
2023-04-05T16:39:50.274Z,4.80
2023-04-05T16:41:51.956Z,15.48
2023-04-05T16:43:44.987Z,6.18
2023-04-05T16:45:34.174Z,10.27
2023-04-05T16:47:27.060Z,8.05
2023-04-05T16:49:14.015Z,16.45
2023-04-05T16:51:01.013Z,18.90
2023-04-05T16:52:54.020Z,12.50
2023-04-05T16:54:53.998Z,6.35
2023-04-05T16:56:42.767Z,7.55
2023-04-05T16:58:36.034Z,5.22
2023-04-05T17:00:35.961Z,7.45
2023-04-05T17:02:29.254Z,10.75
2023-04-05T17:04:16.046Z,5.50
2023-04-05T17:06:11.204Z,7.95
2023-04-05T17:07:58.137Z,9.38
2023-04-05T17:09:51.044Z,7.75
2023-04-05T17:11:30.267Z,5.13
2023-04-05T17:13:25.070Z,7.45
2023-04-05T17:15:11.978Z,7.45
2023-04-05T17:16:58.913Z,6.95
2023-04-05T17:18:53.101Z,5.93
2023-04-05T17:20:46.074Z,8.18
2023-04-05T17:22:26.266Z,5.80
2023-04-05T17:24:20.302Z,5.47
2023-04-05T17:26:07.041Z,5.30
2023-04-05T17:28:00.088Z,6.28
2023-04-05T17:29:48.373Z,7.65
2023-04-05T17:31:41.119Z,6.70
2023-04-05T17:33:34.070Z,4.93
2023-04-05T17:35:34.005Z,4.78
2023-04-05T17:37:27.061Z,6.53
2023-04-05T17:39:21.036Z,5.60
2023-04-05T17:41:08.164Z,5.78
2023-04-05T17:43:01.064Z,5.75
2023-04-05T17:44:43.183Z,5.32
2023-04-05T17:46:42.799Z,6.38
2023-04-05T17:48:39.041Z,5.97
2023-04-05T17:50:19.614Z,7.72
2023-04-05T17:52:08.868Z,5.97
2023-04-05T17:53:56.053Z,6.28
2023-04-05T17:55:36.321Z,6.22
2023-04-05T17:57:23.346Z,6.22
2023-04-05T17:59:10.258Z,10.20
2023-04-05T18:00:51.280Z,4.32
2023-04-05T18:02:41.001Z,7.68
2023-04-05T18:04:28.126Z,7.90
2023-04-05T18:06:08.333Z,6.38
2023-04-05T18:07:55.183Z,6.65
2023-04-05T18:09:44.055Z,5.50
2023-04-05T18:11:30.377Z,5.13
2023-04-05T18:13:09.972Z,5.32
2023-04-05T18:14:57.133Z,5.07
2023-04-05T18:16:38.356Z,3.33
2023-04-05T18:18:32.069Z,6.57
2023-04-05T18:20:19.287Z,4.70
2023-04-05T18:22:12.094Z,6.20
2023-04-05T18:23:59.174Z,5.93
2023-04-05T18:25:59.117Z,5.68
2023-04-05T18:28:00.052Z,6.65
2023-04-05T18:29:55.415Z,6.15
2023-04-05T18:31:43.501Z,6.72
2023-04-05T18:33:36.175Z,6.18
2023-04-05T18:35:37.231Z,6.38
2023-04-05T18:37:24.034Z,6.80
2023-04-05T18:39:17.056Z,6.80
2023-04-05T18:41:19.059Z,2.83
2023-04-05T18:43:05.927Z,6.82
2023-04-05T18:44:59.142Z,4.80
2023-04-05T18:46:41.048Z,6.00
2023-04-05T18:48:27.402Z,5.10
2023-04-05T18:50:16.106Z,5.07
2023-04-05T18:52:18.254Z,5.28
2023-04-05T18:54:12.132Z,4.93
2023-04-05T18:56:01.109Z,3.65
2023-04-05T18:57:48.306Z,6.97
2023-04-05T18:59:41.181Z,4.18
2023-04-05T19:01:20.965Z,4.53
2023-04-05T19:03:09.979Z,5.18
2023-04-05T19:04:58.091Z,5.00
2023-04-05T19:06:38.152Z,5.35
2023-04-05T19:08:33.340Z,4.82
2023-04-05T19:10:26.169Z,5.25
2023-04-05T19:12:13.370Z,6.88
2023-04-05T19:14:08.382Z,6.05
2023-04-05T19:15:55.155Z,6.03
2023-04-05T19:17:41.957Z,6.13
2023-04-05T19:19:37.128Z,6.28
2023-04-05T19:21:31.154Z,6.00
2023-04-05T19:23:11.337Z,6.60
2023-04-05T19:25:05.116Z,6.40
2023-04-05T19:26:52.393Z,7.05
2023-04-05T19:28:32.101Z,6.93
2023-04-05T19:30:19.468Z,6.53
2023-04-05T19:32:05.408Z,7.13
2023-04-05T19:33:51.100Z,6.85
2023-04-05T19:35:46.417Z,7.18
2023-04-05T19:37:46.111Z,6.80
2023-04-05T19:39:34.796Z,7.10
2023-04-05T19:41:27.181Z,7.40
2023-04-05T19:43:07.027Z,7.85
2023-04-05T19:45:04.151Z,7.03
2023-04-05T19:46:58.166Z,7.13
2023-04-05T19:48:46.479Z,10.55
2023-04-05T19:50:58.974Z,6.97
2023-04-05T19:52:51.504Z,6.88
2023-04-05T19:54:38.543Z,6.72
2023-04-05T19:56:27.202Z,4.95
2023-04-05T19:58:08.686Z,5.88
2023-04-05T19:59:55.076Z,7.20
2023-04-05T20:01:54.219Z,6.70
2023-04-05T20:03:42.585Z,6.10
2023-04-05T20:06:08.125Z,5.88
2023-04-05T20:08:01.257Z,6.32
2023-04-05T20:09:41.153Z,6.90
2023-04-05T20:11:36.187Z,5.72
2023-04-05T20:13:23.167Z,5.97
2023-04-05T20:15:18.782Z,5.95
2023-04-05T20:17:13.153Z,5.55
2023-04-05T20:19:06.425Z,3.85
2023-04-05T20:20:47.727Z,5.28
2023-04-05T20:22:42.136Z,6.05
2023-04-05T20:24:42.097Z,6.07
2023-04-05T20:26:37.445Z,4.97
2023-04-05T20:28:43.675Z,5.03
2023-04-05T20:30:38.129Z,5.68
2023-04-05T20:32:25.421Z,6.38
2023-04-05T20:34:26.150Z,5.70
2023-04-05T20:36:20.787Z,4.65
2023-04-05T20:38:08.219Z,5.18
2023-04-05T20:39:48.100Z,5.75
2023-04-05T20:41:41.198Z,5.22
2023-04-05T20:43:34.399Z,5.47
2023-04-05T20:45:22.371Z,5.40
2023-04-05T20:47:15.287Z,5.28
2023-04-05T20:49:01.549Z,5.53
2023-04-05T20:50:54.129Z,5.63
2023-04-05T20:52:40.215Z,4.82
2023-04-05T20:54:28.926Z,6.07
2023-04-05T20:56:16.855Z,5.78
2023-04-05T20:58:03.149Z,6.20
2023-04-05T20:59:43.213Z,6.95
2023-04-05T21:01:36.221Z,6.32
2023-04-05T21:03:22.288Z,6.70
2023-04-05T21:05:08.518Z,7.75
2023-04-05T21:07:01.172Z,7.40
2023-04-05T21:08:40.466Z,7.13
2023-04-05T21:10:29.190Z,6.00
2023-04-05T21:12:18.249Z,6.97
2023-04-05T21:14:04.457Z,5.72
2023-04-05T21:15:44.312Z,6.55
2023-04-05T21:17:31.206Z,7.07
2023-04-05T21:19:10.684Z,6.22
2023-04-05T21:20:58.565Z,6.07
2023-04-05T21:22:45.198Z,5.43
2023-04-05T21:24:24.419Z,5.85
2023-04-05T21:26:12.599Z,6.65
2023-04-05T21:27:58.241Z,6.00
2023-04-05T21:29:38.443Z,5.63
2023-04-05T21:31:25.526Z,4.25
2023-04-05T21:33:12.302Z,6.72
2023-04-05T21:34:52.460Z,7.78
2023-04-05T21:36:39.560Z,5.47
2023-04-05T21:38:26.257Z,5.72
2023-04-05T21:40:06.487Z,5.80
2023-04-05T21:41:54.698Z,5.82
2023-04-05T21:43:41.217Z,6.18
2023-04-05T21:45:27.502Z,5.30
2023-04-05T21:47:07.371Z,5.78
2023-04-05T21:48:54.204Z,5.78
2023-04-05T21:50:34.630Z,6.03
2023-04-05T21:52:21.448Z,5.00
2023-04-05T21:54:08.238Z,5.82
2023-04-05T21:55:47.539Z,6.13
2023-04-05T21:57:35.637Z,6.40
2023-04-05T21:59:22.308Z,6.60
2023-04-05T22:01:02.547Z,5.78
2023-04-05T22:02:49.319Z,5.35
2023-04-05T22:04:36.285Z,5.88
2023-04-05T22:06:16.517Z,5.18
2023-04-05T22:08:11.421Z,5.50
2023-04-05T22:09:57.495Z,6.97
2023-04-05T22:11:51.227Z,5.65
2023-04-05T22:13:39.452Z,5.80
2023-04-05T22:15:26.089Z,6.72
2023-04-05T22:17:19.189Z,7.22
2023-04-05T22:19:06.420Z,7.43
2023-04-05T22:20:52.488Z,5.97
2023-04-05T22:22:45.242Z,5.82
2023-04-05T22:24:32.510Z,6.18
2023-04-05T22:26:19.126Z,6.45
2023-04-05T22:28:12.225Z,6.38
2023-04-05T22:30:08.582Z,7.03
2023-04-05T22:31:47.487Z,6.10
2023-04-05T22:33:40.238Z,5.90
2023-04-05T22:35:40.348Z,5.20
2023-04-05T22:37:27.204Z,5.78
2023-04-05T22:39:20.273Z,5.43
2023-04-05T22:41:07.189Z,5.70
2023-04-05T22:43:00.240Z,6.07
2023-04-05T22:44:47.278Z,5.55
2023-04-05T22:46:42.641Z,5.82
2023-04-05T22:48:29.240Z,6.60
2023-04-05T22:50:17.334Z,6.80
2023-04-05T22:52:04.749Z,8.13
2023-04-05T22:53:57.291Z,8.15
2023-04-05T22:55:39.917Z,6.75
2023-04-05T22:57:26.660Z,7.80
2023-04-05T22:59:13.275Z,6.85
2023-04-05T23:00:53.681Z,7.30
2023-04-05T23:02:41.977Z,6.68
2023-04-05T23:04:29.367Z,7.47
2023-04-05T23:06:09.474Z,7.10
2023-04-05T23:07:56.611Z,6.65
2023-04-05T23:09:43.317Z,6.80
2023-04-05T23:11:23.539Z,6.03
2023-04-05T23:13:10.878Z,5.63
2023-04-05T23:14:57.321Z,5.75
2023-04-05T23:16:37.509Z,6.45
2023-04-05T23:18:24.721Z,5.50
2023-04-05T23:20:12.258Z,6.35
2023-04-05T23:21:52.635Z,6.15
2023-04-05T23:23:39.582Z,5.72
2023-04-05T23:25:26.356Z,6.20
2023-04-05T23:27:12.528Z,5.03
2023-04-05T23:28:59.460Z,6.15
2023-04-05T23:30:46.301Z,5.68
2023-04-05T23:32:26.604Z,6.10
2023-04-05T23:34:21.445Z,6.47
2023-04-05T23:36:14.405Z,6.10
2023-04-05T23:37:54.386Z,6.60
2023-04-05T23:39:47.501Z,6.95
2023-04-05T23:41:47.395Z,6.43
2023-04-05T23:43:47.263Z,7.03
2023-04-05T23:45:40.407Z,7.07
2023-04-05T23:47:26.643Z,6.00
2023-04-05T23:49:21.285Z,6.35
2023-04-05T23:51:07.515Z,7.63
2023-04-05T23:52:54.154Z,5.88
2023-04-05T23:54:47.326Z,7.57
2023-04-05T23:56:33.496Z,7.38
2023-04-05T23:58:19.535Z,7.00
